Judi M. — WCX8376 — position and weather

sailwx.info

Track history (hours):
 
Tides and Currents Weather Stations Pressure Air Temp Water Temp Dewpoint Dewpoint Depression Visibility Wind Speed Wind Dir Waves Ship Positions

Judi M.

Owner: MANKE TUG & BARGE CO INC, SHELTON, WA. More information available from US FCC via Universal Licensing System and Coast Guard Vessel Documentation Center.

Last reported at 2015-Feb-28 06:25 UTC. Time now 2015-Mar-01 04:29 UTC.
Position N 47°34' W 122°22'.

Length 29 m; draft 4 m.

Type: Tow > 200 m length. MMSI: 366740920.

Date/timePositionNaut miles runAvg speedWind from/ knotsBaromVisibWave heightAir tempDewpointWater temp
2015-Feb-28 06:25N 47°34' W 122°22'1 1.3
2015-Feb-28 05:27N 47°36' W 122°22'0 2.6
2015-Feb-28 05:23N 47°36' W 122°22'5 6.6
2015-Feb-28 04:34N 47°39' W 122°28'1 7.6
2015-Feb-28 04:28N 47°40' W 122°28'7 7.4
2015-Feb-28 03:33N 47°47' W 122°27'1 7.0
2015-Feb-28 03:27N 47°47' W 122°27'6 7.2
2015-Feb-28 02:34N 47°54' W 122°30'0 6.1
2015-Feb-28 02:32N 47°54' W 122°30'6 5.9
2015-Feb-28 01:34N 47°58' W 122°36'5 4.8
2015-Feb-28 00:30N 48°03' W 122°39'5 3.8
2015-Feb-27 23:18N 48°07' W 122°42'2 0.1
2015-Feb-27 12:07N 48°06' W 122°45'2836.8
2015-Feb-27 11:22N 48°33' W 122°38'3645.4
2015-Feb-27 10:34N 47°57' W 122°33'7 8.4
2015-Feb-27 09:47N 47°52' W 122°28'2 8.5
2015-Feb-27 09:33N 47°50' W 122°27'1 8.6
2015-Feb-27 09:26N 47°49' W 122°27'8 8.6
2015-Feb-27 08:33N 47°41' W 122°27'0 8.4
2015-Feb-27 08:31N 47°41' W 122°27'7 7.3
2015-Feb-27 07:32N 47°35' W 122°22'0 3.4
2015-Feb-27 07:27N 47°34' W 122°22'  
2015-Feb-25 03:22N 47°34' W 122°22'1 3.4
2015-Feb-25 03:02N 47°36' W 122°22'1 2.4
2015-Feb-25 02:33N 47°36' W 122°23'7 6.7
2015-Feb-25 01:33N 47°42' W 122°28'5 7.5
2015-Feb-25 00:53N 47°47' W 122°27'2 7.2
2015-Feb-25 00:33N 47°50' W 122°28'6 7.0
2015-Feb-24 23:38N 47°56' W 122°31'1 6.4
2015-Feb-24 23:33N 47°56' W 122°32'6 5.8
2015-Feb-24 22:33N 48°00' W 122°38'6 5.8
2015-Feb-24 21:29N 48°07' W 122°37'5 4.2
2015-Feb-24 20:20N 48°10' W 122°42'5 4.4
2015-Feb-24 19:18N 48°13' W 122°47'5 6.5
2015-Feb-24 18:33N 48°18' W 122°48'8 7.5
2015-Feb-24 17:30N 48°25' W 122°45'7 6.9
2015-Feb-24 16:33N 48°32' W 122°45'6 6.0
2015-Feb-24 15:33N 48°38' W 122°44'6 5.6
2015-Feb-24 14:33N 48°43' W 122°46'7 6.9
2015-Feb-24 13:33N 48°48' W 122°54'7 7.2
2015-Feb-24 12:33N 48°51' W 123°04'7 7.0
2015-Feb-24 11:33N 48°56' W 123°12'8 7.6
2015-Feb-24 10:33N 49°01' W 123°20'7 7.3
2015-Feb-24 09:33N 49°07' W 123°27'7 7.3
2015-Feb-24 08:33N 49°14' W 123°28'8 7.2
2015-Feb-24 07:27N 49°22' W 123°26'6 6.9
2015-Feb-24 06:33N 49°28' W 123°28'0 0.0
2015-Feb-23 14:22N 49°29' W 123°28'7 7.9
2015-Feb-23 13:27N 49°21' W 123°27'8 8.4
2015-Feb-23 12:33N 49°14' W 123°27'8 8.3
2015-Feb-23 11:33N 49°06' W 123°23'9 9.1
2015-Feb-23 10:33N 48°59' W 123°13'8 7.8
2015-Feb-23 09:33N 48°54' W 123°04'7 7.4
2015-Feb-23 08:33N 48°50' W 122°55'8 8.0
2015-Feb-23 07:33N 48°45' W 122°46'7 7.5
2015-Feb-23 06:33N 48°38' W 122°44'8 7.9
2015-Feb-23 05:33N 48°30' W 122°44'9 8.7
2015-Feb-23 04:33N 48°21' W 122°45'14 6.3
2015-Feb-23 02:20N 48°08' W 122°40'1 6.8
2015-Feb-23 02:14N 48°07' W 122°39'4 6.4
2015-Feb-23 01:33N 48°03' W 122°38'5 6.5
2015-Feb-23 00:50N 47°59' W 122°34'2 6.5
2015-Feb-23 00:33N 47°57' W 122°33'0 6.7
2015-Feb-23 00:30N 47°57' W 122°32'7 7.4
2015-Feb-22 23:33N 47°51' W 122°27'8 8.2
2015-Feb-22 22:33N 47°43' W 122°26'0 6.3
2015-Feb-22 22:33N 47°43' W 122°27'7 7.3
2015-Feb-22 21:33N 47°36' W 122°22'0 5.6
2015-Feb-22 21:32N 47°36' W 122°22'2 1.6
2015-Feb-22 20:33N 47°34' W 122°22'0 0.0
2015-Feb-22 20:32N 47°34' W 122°22'0 0.0
2015-Feb-22 19:33N 47°34' W 122°22'0 0.0
2015-Feb-22 19:32N 47°34' W 122°22'0 0.0
2015-Feb-22 18:33N 47°34' W 122°22'0 0.0
2015-Feb-22 18:32N 47°34' W 122°22'0 0.0
2015-Feb-22 17:30N 47°34' W 122°22'0 0.0
2015-Feb-22 17:16N 47°34' W 122°22'0 0.0
2015-Feb-22 16:33N 47°34' W 122°22'0 0.0
2015-Feb-22 16:31N 47°34' W 122°22'0 0.0
2015-Feb-22 15:33N 47°34' W 122°22'0 0.0
2015-Feb-22 15:31N 47°34' W 122°22'0 0.0
2015-Feb-22 14:33N 47°34' W 122°22'0 0.0
2015-Feb-22 14:31N 47°34' W 122°22'0 0.0
2015-Feb-22 13:33N 47°34' W 122°22'0 0.0
2015-Feb-22 13:31N 47°34' W 122°22'0 0.0
2015-Feb-22 12:33N 47°34' W 122°22'0 0.0
2015-Feb-22 12:20N 47°34' W 122°22'0 0.0
2015-Feb-22 11:33N 47°34' W 122°22'0 0.0
2015-Feb-22 11:30N 47°34' W 122°22'0 0.0
2015-Feb-22 10:31N 47°34' W 122°22'0 0.0
2015-Feb-22 10:30N 47°34' W 122°22'0 0.0
2015-Feb-22 09:33N 47°34' W 122°22'0 0.0
2015-Feb-22 09:29N 47°34' W 122°22'0 0.0
2015-Feb-22 08:33N 47°34' W 122°22'0 0.0
2015-Feb-22 08:29N 47°34' W 122°22'0 0.0
2015-Feb-22 07:49N 47°34' W 122°22'0 0.0
2015-Feb-22 07:33N 47°34' W 122°22'0 0.1
2015-Feb-22 06:33N 47°35' W 122°22'0 3.7
2015-Feb-22 06:29N 47°35' W 122°22'4 4.1
2015-Feb-22 05:33N 47°38' W 122°25'1 6.9
2015-Feb-22 05:29N 47°38' W 122°26'6 6.8
2015-Feb-22 04:33N 47°44' W 122°27'1 7.4
2015-Feb-22 04:29N 47°45' W 122°27'7 7.3
2015-Feb-22 03:33N 47°51' W 122°29'0 6.6
2015-Feb-22 03:29N 47°52' W 122°29'7 7.3
2015-Feb-22 02:33N 47°57' W 122°35'8 7.7
2015-Feb-22 01:34N 48°04' W 122°40'4 0.3
2015-Feb-21 13:34N 48°06' W 122°45'6 6.1
2015-Feb-21 12:33N 48°01' W 122°39'5 6.1
2015-Feb-21 11:44N 47°58' W 122°34'1 5.3
2015-Feb-21 11:33N 47°57' W 122°33'0 5.5
2015-Feb-21 11:30N 47°57' W 122°32'6 6.3
2015-Feb-21 10:34N 47°52' W 122°28'0 7.5
2015-Feb-21 10:30N 47°51' W 122°28'8 8.0
2015-Feb-21 09:33N 47°44' W 122°26'0 7.5
2015-Feb-21 09:30N 47°44' W 122°26'7 7.3
2015-Feb-21 08:33N 47°37' W 122°24'0 7.9
2015-Feb-21 08:30N 47°37' W 122°23'3 2.7
2015-Feb-21 07:33N 47°34' W 122°22'0 0.0
2015-Feb-21 07:29N 47°34' W 122°22'0 0.0
2015-Feb-21 07:04N 47°34' W 122°22'0 0.0
2015-Feb-21 06:33N 47°34' W 122°22'0 0.0
2015-Feb-21 05:33N 47°34' W 122°22'0 0.0
2015-Feb-21 05:29N 47°34' W 122°22'0 0.0
2015-Feb-21 04:33N 47°34' W 122°22'0 0.0
2015-Feb-21 04:29N 47°34' W 122°22'0 0.0
2015-Feb-21 03:34N 47°34' W 122°22'0 0.0
2015-Feb-21 03:33N 47°34' W 122°22'0 0.0
2015-Feb-21 02:33N 47°34' W 122°22'0 0.0
2015-Feb-21 02:29N 47°34' W 122°22'1 1.2
2015-Feb-21 01:33N 47°36' W 122°21'0 1.9
2015-Feb-21 01:29N 47°36' W 122°21'4 4.2
2015-Feb-21 00:34N 47°38' W 122°26'1 7.0
2015-Feb-21 00:29N 47°38' W 122°27'7 7.1
2015-Feb-20 23:34N 47°45' W 122°27'1 7.3
2015-Feb-20 23:29N 47°45' W 122°27'7 7.3
2015-Feb-20 22:34N 47°52' W 122°29'017.5
2015-Feb-20 22:34N 47°52' W 122°29'8 7.6
2015-Feb-20 21:34N 47°58' W 122°36'9 7.3
2015-Feb-20 20:20N 48°06' W 122°40'20 6.3
2015-Feb-20 17:14N 48°26' W 122°45'6 9.0
2015-Feb-20 16:33N 48°32' W 122°45'8 8.3
2015-Feb-20 15:33N 48°40' W 122°44'7 6.7
2015-Feb-20 14:32N 48°46' W 122°50'7 7.3
2015-Feb-20 13:33N 48°50' W 122°59'6 5.9
2015-Feb-20 12:34N 48°53' W 123°06'6 5.6
2015-Feb-20 11:33N 48°56' W 123°13'5 5.1
2015-Feb-20 10:33N 48°60' W 123°19'6 6.0
2015-Feb-20 09:34N 49°04' W 123°25'6 6.4
2015-Feb-20 08:34N 49°11' W 123°27'8 7.6
2015-Feb-20 07:33N 49°18' W 123°27'7 6.9
2015-Feb-20 06:33N 49°25' W 123°27'3 0.2
2015-Feb-19 14:33N 49°28' W 123°28'7 6.7
2015-Feb-19 13:30N 49°21' W 123°27'7 7.1
2015-Feb-19 12:33N 49°15' W 123°27'8 7.6
2015-Feb-19 11:33N 49°07' W 123°25'9 8.8
2015-Feb-19 10:33N 49°01' W 123°15'8 8.4
2015-Feb-19 09:33N 48°56' W 123°06'9 9.4
2015-Feb-19 08:33N 48°49' W 122°55'9 8.6
2015-Feb-19 07:33N 48°44' W 122°45'7 7.1
2015-Feb-19 06:33N 48°37' W 122°45'6 6.5
2015-Feb-19 05:34N 48°30' W 122°44'6 6.0
2015-Feb-19 04:33N 48°24' W 122°44'8 6.9
2015-Feb-19 03:25N 48°17' W 122°47'12 9.7
2015-Feb-19 02:09N 48°06' W 122°39'711.5
2015-Feb-19 01:33N 47°59' W 122°35'111.6
2015-Feb-19 01:28N 47°58' W 122°35'9 9.8
2015-Feb-19 00:33N 47°51' W 122°27'3 9.3
2015-Feb-19 00:17N 47°48' W 122°26'7 9.2
2015-Feb-18 23:33N 47°42' W 122°27'0 9.4
2015-Feb-18 23:32N 47°42' W 122°27'8 7.7
2015-Feb-18 22:33N 47°35' W 122°22'0 0.4
2015-Feb-18 21:39N 47°34' W 122°22'0 0.0
2015-Feb-18 21:33N 47°34' W 122°22'0 0.0
2015-Feb-18 21:30N 47°34' W 122°22'  
Track history (hours):
 
Tides and Currents Weather Stations Pressure Air Temp Water Temp Dewpoint Dewpoint Depression Visibility Wind Speed Wind Dir Waves Ship Positions

Judi M.

Owner: MANKE TUG & BARGE CO INC, SHELTON, WA. More information available from US FCC via Universal Licensing System and Coast Guard Vessel Documentation Center.

Last reported at 2015-Feb-28 06:25 UTC. Time now 2015-Mar-01 04:29 UTC.
Position N 47°34' W 122°22'.

Length 29 m; draft 4 m.

Type: Tow > 200 m length. MMSI: 366740920.

Date/timePositionNaut miles runAvg speedWind from/ knotsBaromVisibWave heightAir tempDewpointWater temp
2015-Feb-28 06:25N 47°34' W 122°22'1 1.3
2015-Feb-28 05:27N 47°36' W 122°22'0 2.6
2015-Feb-28 05:23N 47°36' W 122°22'5 6.6
2015-Feb-28 04:34N 47°39' W 122°28'1 7.6
2015-Feb-28 04:28N 47°40' W 122°28'7 7.4
2015-Feb-28 03:33N 47°47' W 122°27'1 7.0
2015-Feb-28 03:27N 47°47' W 122°27'6 7.2
2015-Feb-28 02:34N 47°54' W 122°30'0 6.1
2015-Feb-28 02:32N 47°54' W 122°30'6 5.9
2015-Feb-28 01:34N 47°58' W 122°36'5 4.8
2015-Feb-28 00:30N 48°03' W 122°39'5 3.8
2015-Feb-27 23:18N 48°07' W 122°42'2 0.1
2015-Feb-27 12:07N 48°06' W 122°45'2836.8
2015-Feb-27 11:22N 48°33' W 122°38'3645.4
2015-Feb-27 10:34N 47°57' W 122°33'7 8.4
2015-Feb-27 09:47N 47°52' W 122°28'2 8.5
2015-Feb-27 09:33N 47°50' W 122°27'1 8.6
2015-Feb-27 09:26N 47°49' W 122°27'8 8.6
2015-Feb-27 08:33N 47°41' W 122°27'0 8.4
2015-Feb-27 08:31N 47°41' W 122°27'7 7.3
2015-Feb-27 07:32N 47°35' W 122°22'0 3.4
2015-Feb-27 07:27N 47°34' W 122°22'  
2015-Feb-25 03:22N 47°34' W 122°22'1 3.4
2015-Feb-25 03:02N 47°36' W 122°22'1 2.4
2015-Feb-25 02:33N 47°36' W 122°23'7 6.7
2015-Feb-25 01:33N 47°42' W 122°28'5 7.5
2015-Feb-25 00:53N 47°47' W 122°27'2 7.2
2015-Feb-25 00:33N 47°50' W 122°28'6 7.0
2015-Feb-24 23:38N 47°56' W 122°31'1 6.4
2015-Feb-24 23:33N 47°56' W 122°32'6 5.8
2015-Feb-24 22:33N 48°00' W 122°38'6 5.8
2015-Feb-24 21:29N 48°07' W 122°37'5 4.2
2015-Feb-24 20:20N 48°10' W 122°42'5 4.4
2015-Feb-24 19:18N 48°13' W 122°47'5 6.5
2015-Feb-24 18:33N 48°18' W 122°48'8 7.5
2015-Feb-24 17:30N 48°25' W 122°45'7 6.9
2015-Feb-24 16:33N 48°32' W 122°45'6 6.0
2015-Feb-24 15:33N 48°38' W 122°44'6 5.6
2015-Feb-24 14:33N 48°43' W 122°46'7 6.9
2015-Feb-24 13:33N 48°48' W 122°54'7 7.2
2015-Feb-24 12:33N 48°51' W 123°04'7 7.0
2015-Feb-24 11:33N 48°56' W 123°12'8 7.6
2015-Feb-24 10:33N 49°01' W 123°20'7 7.3
2015-Feb-24 09:33N 49°07' W 123°27'7 7.3
2015-Feb-24 08:33N 49°14' W 123°28'8 7.2
2015-Feb-24 07:27N 49°22' W 123°26'6 6.9
2015-Feb-24 06:33N 49°28' W 123°28'0 0.0
2015-Feb-23 14:22N 49°29' W 123°28'7 7.9
2015-Feb-23 13:27N 49°21' W 123°27'8 8.4
2015-Feb-23 12:33N 49°14' W 123°27'8 8.3
2015-Feb-23 11:33N 49°06' W 123°23'9 9.1
2015-Feb-23 10:33N 48°59' W 123°13'8 7.8
2015-Feb-23 09:33N 48°54' W 123°04'7 7.4
2015-Feb-23 08:33N 48°50' W 122°55'8 8.0
2015-Feb-23 07:33N 48°45' W 122°46'7 7.5
2015-Feb-23 06:33N 48°38' W 122°44'8 7.9
2015-Feb-23 05:33N 48°30' W 122°44'9 8.7
2015-Feb-23 04:33N 48°21' W 122°45'14 6.3
2015-Feb-23 02:20N 48°08' W 122°40'1 6.8
2015-Feb-23 02:14N 48°07' W 122°39'4 6.4
2015-Feb-23 01:33N 48°03' W 122°38'5 6.5
2015-Feb-23 00:50N 47°59' W 122°34'2 6.5
2015-Feb-23 00:33N 47°57' W 122°33'0 6.7
2015-Feb-23 00:30N 47°57' W 122°32'7 7.4
2015-Feb-22 23:33N 47°51' W 122°27'8 8.2
2015-Feb-22 22:33N 47°43' W 122°26'0 6.3
2015-Feb-22 22:33N 47°43' W 122°27'7 7.3
2015-Feb-22 21:33N 47°36' W 122°22'0 5.6
2015-Feb-22 21:32N 47°36' W 122°22'2 1.6
2015-Feb-22 20:33N 47°34' W 122°22'0 0.0
2015-Feb-22 20:32N 47°34' W 122°22'0 0.0
2015-Feb-22 19:33N 47°34' W 122°22'0 0.0
2015-Feb-22 19:32N 47°34' W 122°22'0 0.0
2015-Feb-22 18:33N 47°34' W 122°22'0 0.0
2015-Feb-22 18:32N 47°34' W 122°22'0 0.0
2015-Feb-22 17:30N 47°34' W 122°22'0 0.0
2015-Feb-22 17:16N 47°34' W 122°22'0 0.0
2015-Feb-22 16:33N 47°34' W 122°22'0 0.0
2015-Feb-22 16:31N 47°34' W 122°22'0 0.0
2015-Feb-22 15:33N 47°34' W 122°22'0 0.0
2015-Feb-22 15:31N 47°34' W 122°22'0 0.0
2015-Feb-22 14:33N 47°34' W 122°22'0 0.0
2015-Feb-22 14:31N 47°34' W 122°22'0 0.0
2015-Feb-22 13:33N 47°34' W 122°22'0 0.0
2015-Feb-22 13:31N 47°34' W 122°22'0 0.0
2015-Feb-22 12:33N 47°34' W 122°22'0 0.0
2015-Feb-22 12:20N 47°34' W 122°22'0 0.0
2015-Feb-22 11:33N 47°34' W 122°22'0 0.0
2015-Feb-22 11:30N 47°34' W 122°22'0 0.0
2015-Feb-22 10:31N 47°34' W 122°22'0 0.0
2015-Feb-22 10:30N 47°34' W 122°22'0 0.0
2015-Feb-22 09:33N 47°34' W 122°22'0 0.0
2015-Feb-22 09:29N 47°34' W 122°22'0 0.0
2015-Feb-22 08:33N 47°34' W 122°22'0 0.0
2015-Feb-22 08:29N 47°34' W 122°22'0 0.0
2015-Feb-22 07:49N 47°34' W 122°22'0 0.0
2015-Feb-22 07:33N 47°34' W 122°22'0 0.1
2015-Feb-22 06:33N 47°35' W 122°22'0 3.7
2015-Feb-22 06:29N 47°35' W 122°22'4 4.1
2015-Feb-22 05:33N 47°38' W 122°25'1 6.9
2015-Feb-22 05:29N 47°38' W 122°26'6 6.8
2015-Feb-22 04:33N 47°44' W 122°27'1 7.4
2015-Feb-22 04:29N 47°45' W 122°27'7 7.3
2015-Feb-22 03:33N 47°51' W 122°29'0 6.6
2015-Feb-22 03:29N 47°52' W 122°29'7 7.3
2015-Feb-22 02:33N 47°57' W 122°35'8 7.7
2015-Feb-22 01:34N 48°04' W 122°40'4 0.3
2015-Feb-21 13:34N 48°06' W 122°45'6 6.1
2015-Feb-21 12:33N 48°01' W 122°39'5 6.1
2015-Feb-21 11:44N 47°58' W 122°34'1 5.3
2015-Feb-21 11:33N 47°57' W 122°33'0 5.5
2015-Feb-21 11:30N 47°57' W 122°32'6 6.3
2015-Feb-21 10:34N 47°52' W 122°28'0 7.5
2015-Feb-21 10:30N 47°51' W 122°28'8 8.0
2015-Feb-21 09:33N 47°44' W 122°26'0 7.5
2015-Feb-21 09:30N 47°44' W 122°26'7 7.3
2015-Feb-21 08:33N 47°37' W 122°24'0 7.9
2015-Feb-21 08:30N 47°37' W 122°23'3 2.7
2015-Feb-21 07:33N 47°34' W 122°22'0 0.0
2015-Feb-21 07:29N 47°34' W 122°22'0 0.0
2015-Feb-21 07:04N 47°34' W 122°22'0 0.0
2015-Feb-21 06:33N 47°34' W 122°22'0 0.0
2015-Feb-21 05:33N 47°34' W 122°22'0 0.0
2015-Feb-21 05:29N 47°34' W 122°22'0 0.0
2015-Feb-21 04:33N 47°34' W 122°22'0 0.0
2015-Feb-21 04:29N 47°34' W 122°22'0 0.0
2015-Feb-21 03:34N 47°34' W 122°22'0 0.0
2015-Feb-21 03:33N 47°34' W 122°22'0 0.0
2015-Feb-21 02:33N 47°34' W 122°22'0 0.0
2015-Feb-21 02:29N 47°34' W 122°22'1 1.2
2015-Feb-21 01:33N 47°36' W 122°21'0 1.9
2015-Feb-21 01:29N 47°36' W 122°21'4 4.2
2015-Feb-21 00:34N 47°38' W 122°26'1 7.0
2015-Feb-21 00:29N 47°38' W 122°27'7 7.1
2015-Feb-20 23:34N 47°45' W 122°27'1 7.3
2015-Feb-20 23:29N 47°45' W 122°27'7 7.3
2015-Feb-20 22:34N 47°52' W 122°29'017.5
2015-Feb-20 22:34N 47°52' W 122°29'8 7.6
2015-Feb-20 21:34N 47°58' W 122°36'9 7.3
2015-Feb-20 20:20N 48°06' W 122°40'20 6.3
2015-Feb-20 17:14N 48°26' W 122°45'6 9.0
2015-Feb-20 16:33N 48°32' W 122°45'8 8.3
2015-Feb-20 15:33N 48°40' W 122°44'7 6.7
2015-Feb-20 14:32N 48°46' W 122°50'7 7.3
2015-Feb-20 13:33N 48°50' W 122°59'6 5.9
2015-Feb-20 12:34N 48°53' W 123°06'6 5.6
2015-Feb-20 11:33N 48°56' W 123°13'5 5.1
2015-Feb-20 10:33N 48°60' W 123°19'6 6.0
2015-Feb-20 09:34N 49°04' W 123°25'6 6.4
2015-Feb-20 08:34N 49°11' W 123°27'8 7.6
2015-Feb-20 07:33N 49°18' W 123°27'7 6.9
2015-Feb-20 06:33N 49°25' W 123°27'3 0.2
2015-Feb-19 14:33N 49°28' W 123°28'7 6.7
2015-Feb-19 13:30N 49°21' W 123°27'7 7.1
2015-Feb-19 12:33N 49°15' W 123°27'8 7.6
2015-Feb-19 11:33N 49°07' W 123°25'9 8.8
2015-Feb-19 10:33N 49°01' W 123°15'8 8.4
2015-Feb-19 09:33N 48°56' W 123°06'9 9.4
2015-Feb-19 08:33N 48°49' W 122°55'9 8.6
2015-Feb-19 07:33N 48°44' W 122°45'7 7.1
2015-Feb-19 06:33N 48°37' W 122°45'6 6.5
2015-Feb-19 05:34N 48°30' W 122°44'6 6.0
2015-Feb-19 04:33N 48°24' W 122°44'8 6.9
2015-Feb-19 03:25N 48°17' W 122°47'12 9.7
2015-Feb-19 02:09N 48°06' W 122°39'711.5
2015-Feb-19 01:33N 47°59' W 122°35'111.6
2015-Feb-19 01:28N 47°58' W 122°35'9 9.8
2015-Feb-19 00:33N 47°51' W 122°27'3 9.3
2015-Feb-19 00:17N 47°48' W 122°26'7 9.2
2015-Feb-18 23:33N 47°42' W 122°27'0 9.4
2015-Feb-18 23:32N 47°42' W 122°27'8 7.7
2015-Feb-18 22:33N 47°35' W 122°22'0 0.4
2015-Feb-18 21:39N 47°34' W 122°22'0 0.0
2015-Feb-18 21:33N 47°34' W 122°22'0 0.0
2015-Feb-18 21:30N 47°34' W 122°22'  

Dump ship's entire track history